Time;durP1;ratioP1;P1;durP2;ratioP2;P2;SDS_P1;SDS_P2;PMS_P1;PMS_P2;Temp;Humidity;BMP_temperature;BMP_pressure;BME280_temperature;BME280_humidity;BME280_pressure;Samples;Min_cycle;Max_cycle;Signal;HPM_P1;HPM_P2
2023/02/17 00:00:12;;;;;;;28.63;19.83;;;;;;;8.97;100.00;101758.56;5135089;27;20051;-58
2023/02/17 00:02:40;;;;;;;26.13;18.73;;;;;;;8.99;100.00;101754.13;5132420;27;20439;-53
2023/02/17 00:05:10;;;;;;;29.58;20.40;;;;;;;8.98;100.00;101754.19;5132684;27;20057;-53
2023/02/17 00:07:38;;;;;;;26.30;18.48;;;;;;;8.95;100.00;101758.63;5132301;27;20494;-51
2023/02/17 00:10:10;;;;;;;29.45;19.90;;;;;;;8.95;100.00;101750.75;5134491;27;20035;-53
2023/02/17 00:12:38;;;;;;;26.65;17.83;;;;;;;8.95;100.00;101748.13;5132833;27;20061;-52
2023/02/17 00:15:06;;;;;;;26.38;18.27;;;;;;;8.96;100.00;101744.59;5132354;27;20063;-53
2023/02/17 00:17:35;;;;;;;23.48;16.40;;;;;;;9.01;100.00;101746.16;5131719;27;20517;-54
2023/02/17 00:20:03;;;;;;;22.30;15.63;;;;;;;9.03;100.00;101741.72;5133238;27;20057;-53
2023/02/17 00:22:36;;;;;;;22.90;14.48;;;;;;;9.04;100.00;101733.78;5131748;27;20089;-51
2023/02/17 00:25:05;;;;;;;20.98;14.43;;;;;;;9.05;100.00;101732.00;5132013;27;20043;-52
2023/02/17 00:27:33;;;;;;;19.30;13.18;;;;;;;9.03;100.00;101737.31;5130807;27;20393;-53
2023/02/17 00:30:01;;;;;;;18.17;12.68;;;;;;;9.05;100.00;101737.25;5132413;27;20047;-52
2023/02/17 00:32:29;;;;;;;18.85;11.48;;;;;;;9.04;100.00;101740.78;5132379;27;20058;-53
2023/02/17 00:34:57;;;;;;;16.83;11.38;;;;;;;9.07;100.00;101736.25;5135344;27;20083;-51
2023/02/17 00:37:26;;;;;;;16.77;11.73;;;;;;;9.07;100.00;101740.66;5131654;27;20058;-53
2023/02/17 00:39:58;;;;;;;16.85;11.68;;;;;;;9.06;100.00;101739.78;5131782;27;20039;-52
2023/02/17 00:42:26;;;;;;;16.05;11.13;;;;;;;9.07;100.00;101741.50;5131090;27;20080;-53
2023/02/17 00:44:54;;;;;;;15.93;11.32;;;;;;;9.05;100.00;101737.25;5131871;27;20035;-50
2023/02/17 00:47:22;;;;;;;17.25;10.75;;;;;;;9.06;100.00;101737.16;5131686;27;20070;-52
2023/02/17 00:49:53;;;;;;;15.50;10.57;;;;;;;9.07;100.00;101732.78;5132111;27;20776;-50
2023/02/17 00:52:21;;;;;;;19.17;11.60;;;;;;;9.03;100.00;101732.06;5131539;27;20440;-51
2023/02/17 00:54:49;;;;;;;17.55;11.75;;;;;;;9.05;100.00;101726.75;5134912;27;20532;-53
2023/02/17 00:57:18;;;;;;;18.17;12.07;;;;;;;9.02;100.00;101732.13;5133468;27;20383;-53
2023/02/17 00:59:47;;;;;;;16.95;12.20;;;;;;;9.09;100.00;101739.69;5131496;27;20071;-50
2023/02/17 01:02:18;;;;;;;17.48;12.30;;;;;;;9.06;100.00;101731.06;5131084;27;20047;-50
2023/02/17 01:04:46;;;;;;;17.42;12.40;;;;;;;9.04;100.00;101720.66;5131499;27;20053;-50
2023/02/17 01:07:14;;;;;;;20.63;14.40;;;;;;;9.08;100.00;101723.97;5132934;27;20045;-53
2023/02/17 01:09:42;;;;;;;19.10;14.18;;;;;;;9.09;100.00;101710.81;5134273;27;20490;-52
2023/02/17 01:12:11;;;;;;;18.55;13.52;;;;;;;9.10;100.00;101717.75;5134727;27;20043;-53
2023/02/17 01:14:41;;;;;;;20.67;13.82;;;;;;;9.10;100.00;101709.03;5134659;27;20522;-53
2023/02/17 01:17:09;;;;;;;20.95;14.15;;;;;;;9.08;100.00;101702.97;5134713;27;20126;-52
2023/02/17 01:19:37;;;;;;;20.30;14.88;;;;;;;9.08;100.00;101706.47;5134319;27;20031;-52
2023/02/17 01:22:05;;;;;;;24.05;14.93;;;;;;;9.08;100.00;101698.59;5134700;27;20054;-62
2023/02/17 01:24:33;;;;;;;19.65;14.23;;;;;;;9.06;100.00;101705.69;5134480;27;20494;-53
2023/02/17 01:27:01;;;;;;;19.88;14.77;;;;;;;9.08;100.00;101701.22;5134238;27;20557;-61
2023/02/17 01:29:29;;;;;;;20.17;14.20;;;;;;;9.08;100.00;101708.22;5134449;27;20039;-62
2023/02/17 01:31:59;;;;;;;20.15;14.82;;;;;;;9.05;100.00;101701.38;5134100;27;20047;-62
2023/02/17 01:34:27;;;;;;;19.15;13.85;;;;;;;9.09;100.00;101699.44;5133917;27;20078;-53
2023/02/17 01:36:55;;;;;;;18.98;14.00;;;;;;;9.08;100.00;101705.59;5133790;27;20096;-54
2023/02/17 01:39:23;;;;;;;18.45;13.35;;;;;;;9.08;100.00;101710.84;5133375;27;20059;-53
2023/02/17 01:41:52;;;;;;;21.13;13.77;;;;;;;9.08;100.00;101716.97;5133642;27;20042;-52
2023/02/17 01:44:22;;;;;;;19.15;13.25;;;;;;;9.15;100.00;101720.19;5133624;27;20096;-52
2023/02/17 01:46:52;;;;;;;18.48;12.88;;;;;;;9.10;100.00;101724.78;5133743;27;20134;-52
2023/02/17 01:49:27;;;;;;;18.17;12.65;;;;;;;9.12;100.00;101718.53;5134007;27;20092;-52
2023/02/17 01:52:04;;;;;;;19.23;12.90;;;;;;;9.13;100.00;101717.63;5132314;27;20051;-52
2023/02/17 01:54:37;;;;;;;18.55;12.57;;;;;;;9.13;100.00;101712.38;5129686;27;20112;-52
2023/02/17 01:57:06;;;;;;;18.02;12.70;;;;;;;9.18;100.00;101693.78;5133689;27;20417;-52
2023/02/17 01:59:34;;;;;;;17.80;12.43;;;;;;;9.15;100.00;101688.69;5133807;27;20351;-51
2023/02/17 02:02:04;;;;;;;18.08;12.38;;;;;;;9.17;100.00;101694.69;5132525;27;20047;-52
2023/02/17 02:04:39;;;;;;;19.02;12.95;;;;;;;9.16;100.00;101676.41;5133790;27;20427;-53
2023/02/17 02:07:14;;;;;;;20.20;12.73;;;;;;;9.19;100.00;101681.50;5133964;27;20110;-53
2023/02/17 02:09:47;;;;;;;19.02;11.68;;;;;;;9.21;100.00;101674.41;5133671;27;20122;-52
2023/02/17 02:12:18;;;;;;;19.08;12.70;;;;;;;9.17;100.00;101683.34;5133669;27;20562;-51
2023/02/17 02:14:47;;;;;;;21.95;13.68;;;;;;;9.19;100.00;101665.75;5130783;27;20061;-53
2023/02/17 02:17:27;;;;;;;21.48;12.95;;;;;;;9.20;100.00;101678.81;5129901;27;20448;-53
2023/02/17 02:20:28;;;;;;;24.30;14.43;;;;;;;9.21;100.00;101675.25;5133072;27;20043;-50
2023/02/17 02:23:30;;;;;;;22.33;13.20;;;;;;;9.21;100.00;101670.00;5131852;27;20409;-51
2023/02/17 02:26:20;;;;;;;21.25;12.65;;;;;;;9.17;100.00;101665.00;5128872;27;20063;-53
2023/02/17 02:29:06;;;;;;;23.10;14.10;;;;;;;9.13;100.00;101675.63;5132157;27;20056;-53
2023/02/17 02:31:46;;;;;;;24.90;13.10;;;;;;;9.14;100.00;101666.81;5129478;27;20059;-52
2023/02/17 02:34:20;;;;;;;24.25;13.43;;;;;;;9.13;100.00;101661.63;5132533;28;20047;-53
2023/02/17 02:36:53;;;;;;;20.30;13.00;;;;;;;9.13;100.00;101665.13;5133185;28;20042;-53
2023/02/17 02:39:26;;;;;;;22.30;14.05;;;;;;;9.12;100.00;101660.81;5131948;27;20050;-53
2023/02/17 02:41:58;;;;;;;23.25;14.00;;;;;;;9.14;100.00;101650.22;5129264;27;20537;-49
2023/02/17 02:44:26;;;;;;;22.65;14.13;;;;;;;9.17;100.00;101636.97;5130130;28;20134;-51
2023/02/17 02:46:59;;;;;;;22.98;14.07;;;;;;;9.11;100.00;101627.59;5129653;27;20498;-52
2023/02/17 02:49:31;;;;;;;21.80;13.77;;;;;;;9.18;100.00;101624.72;5130193;28;20057;-53
2023/02/17 02:52:07;;;;;;;25.52;14.13;;;;;;;9.16;100.00;101629.16;5133162;27;20510;-53
2023/02/17 02:54:45;;;;;;;21.88;14.38;;;;;;;9.19;100.00;101621.13;5133251;27;20049;-53
2023/02/17 02:57:28;;;;;;;24.08;15.05;;;;;;;9.19;100.00;101622.00;5133096;27;20052;-50
2023/02/17 03:00:03;;;;;;;;;;;;;;;9.17;100.00;101621.22;5133840;27;20043;-52
2023/02/17 03:02:39;;;;;;;23.10;12.77;;;;;;;9.16;100.00;101629.16;5133166;27;20018;-50
2023/02/17 03:05:15;;;;;;;24.52;13.63;;;;;;;9.20;100.00;101625.47;5132089;27;20474;-52
2023/02/17 03:07:49;;;;;;;21.90;13.82;;;;;;;9.19;100.00;101631.63;5133424;27;20047;-51
2023/02/17 03:10:18;;;;;;;24.15;12.50;;;;;;;9.22;100.00;101639.38;5132892;27;20084;-50
2023/02/17 03:12:46;;;;;;;22.10;12.27;;;;;;;9.20;100.00;101636.81;5133010;28;20545;-52
2023/02/17 03:15:23;;;;;;;24.33;13.57;;;;;;;9.18;100.00;101636.03;5130986;28;20051;-53
2023/02/17 03:17:56;;;;;;;22.60;14.00;;;;;;;9.11;100.00;101635.47;5129503;27;20494;-54
2023/02/17 03:20:27;;;;;;;20.20;13.20;;;;;;;9.13;100.00;101631.03;5128683;27;20039;-53
2023/02/17 03:22:56;;;;;;;20.60;12.93;;;;;;;9.15;100.00;101625.69;5129435;27;20047;-53
2023/02/17 03:25:24;;;;;;;19.42;12.25;;;;;;;9.12;100.00;101623.19;5130560;28;20480;-52
2023/02/17 03:27:52;;;;;;;20.95;12.73;;;;;;;9.10;100.00;101631.13;5129138;27;20044;-53
2023/02/17 03:30:20;;;;;;;19.25;11.75;;;;;;;9.13;100.00;101619.66;5131524;27;20058;-53
2023/02/17 03:32:49;;;;;;;18.45;11.23;;;;;;;9.14;100.00;101631.84;5136119;27;20055;-51
2023/02/17 03:35:17;;;;;;;19.35;12.00;;;;;;;9.11;100.00;101629.38;5135854;27;20058;-52
2023/02/17 03:37:46;;;;;;;17.92;11.07;;;;;;;9.17;100.00;101629.09;5133723;27;20803;-53
2023/02/17 03:40:14;;;;;;;18.40;11.40;;;;;;;9.11;100.00;101626.75;5134497;27;20415;-52
2023/02/17 03:42:42;;;;;;;18.90;10.93;;;;;;;9.08;100.00;101622.50;5136563;27;20047;-53
2023/02/17 03:45:10;;;;;;;17.92;10.93;;;;;;;9.13;100.00;101620.53;5136448;27;20047;-51
2023/02/17 03:47:39;;;;;;;17.17;10.68;;;;;;;9.11;100.00;101618.88;5132875;27;20060;-53
2023/02/17 03:50:07;;;;;;;17.70;10.80;;;;;;;9.13;100.00;101611.78;5133413;27;20047;-53
2023/02/17 03:52:36;;;;;;;19.85;10.80;;;;;;;9.09;100.00;101597.09;5134461;27;20079;-53
2023/02/17 03:55:06;;;;;;;16.02;10.20;;;;;;;9.10;100.00;101604.91;5133631;27;20063;-52
2023/02/17 03:57:34;;;;;;;16.00;10.23;;;;;;;9.08;100.00;101606.75;5132492;27;20547;-52
2023/02/17 04:00:07;;;;;;;16.85;9.98;;;;;;;9.07;100.00;101591.94;5133267;27;20114;-51
2023/02/17 04:02:35;;;;;;;16.17;9.50;;;;;;;9.12;100.00;101591.69;5135976;27;20385;-49
2023/02/17 04:05:03;;;;;;;17.63;10.25;;;;;;;9.06;100.00;101594.63;5135965;27;20134;-53
2023/02/17 04:07:31;;;;;;;19.00;10.60;;;;;;;9.05;100.00;101591.16;5135714;27;20054;-53
2023/02/17 04:09:59;;;;;;;17.75;10.18;;;;;;;9.08;100.00;101598.00;5135931;27;20088;-54
2023/02/17 04:12:29;;;;;;;15.15;9.10;;;;;;;9.09;100.00;101590.09;5135793;27;20031;-62
2023/02/17 04:14:57;;;;;;;17.40;10.25;;;;;;;9.14;100.00;101598.59;5134173;27;20046;-62
2023/02/17 04:17:25;;;;;;;15.98;9.93;;;;;;;9.12;100.00;101583.81;5133899;27;20482;-62
2023/02/17 04:19:53;;;;;;;18.73;10.75;;;;;;;9.11;100.00;101598.72;5134825;27;20449;-62
2023/02/17 04:22:21;;;;;;;14.93;9.45;;;;;;;9.15;100.00;101596.84;5135904;27;20090;-62
2023/02/17 04:24:49;;;;;;;16.60;11.40;;;;;;;9.10;100.00;101597.03;5133690;27;20092;-63
2023/02/17 04:27:17;;;;;;;19.25;11.38;;;;;;;9.10;100.00;101610.16;5133304;27;20051;-62
2023/02/17 04:29:47;;;;;;;18.98;10.95;;;;;;;9.13;100.00;101609.16;5133917;27;20126;-62
2023/02/17 04:32:15;;;;;;;17.83;12.20;;;;;;;9.09;100.00;101610.22;5133988;27;20051;-62
2023/02/17 04:34:43;;;;;;;19.25;13.23;;;;;;;9.09;100.00;101599.72;5134290;27;20040;-62
2023/02/17 04:37:11;;;;;;;20.50;13.68;;;;;;;9.14;100.00;101590.72;5133442;27;20047;-62
2023/02/17 04:39:39;;;;;;;19.77;12.93;;;;;;;9.11;100.00;101590.03;5132714;27;20047;-62
2023/02/17 04:42:07;;;;;;;21.65;14.02;;;;;;;9.07;100.00;101599.81;5132719;27;20035;-62
2023/02/17 04:44:35;;;;;;;20.85;14.48;;;;;;;9.10;100.00;101594.41;5133161;27;20554;-62
2023/02/17 04:47:05;;;;;;;23.85;15.45;;;;;;;9.11;100.00;101593.50;5134702;27;20046;-62
2023/02/17 04:49:33;;;;;;;22.92;14.10;;;;;;;9.12;100.00;101583.81;5135300;27;20049;-62
2023/02/17 04:52:01;;;;;;;24.05;14.98;;;;;;;9.08;100.00;101583.16;5133196;27;20143;-62
2023/02/17 04:54:29;;;;;;;25.33;15.77;;;;;;;9.07;100.00;101588.47;5132463;27;20100;-62
2023/02/17 04:56:57;;;;;;;24.92;16.13;;;;;;;9.11;100.00;101582.16;5132386;27;20194;-51
2023/02/17 04:59:25;;;;;;;23.67;16.08;;;;;;;9.11;100.00;101577.75;5133427;27;20047;-52
2023/02/17 05:01:53;;;;;;;23.38;14.68;;;;;;;9.14;100.00;101568.88;5131428;27;20482;-52
2023/02/17 05:04:23;;;;;;;25.02;15.77;;;;;;;9.18;100.00;101569.59;5131134;27;20103;-53
2023/02/17 05:06:53;;;;;;;22.55;15.07;;;;;;;9.14;100.00;101558.38;5131643;27;20130;-53
2023/02/17 05:09:22;;;;;;;27.33;17.35;;;;;;;9.13;100.00;101551.44;5134566;27;20039;-57
2023/02/17 05:11:50;;;;;;;24.10;15.60;;;;;;;9.18;100.00;101564.34;5134278;27;20039;-52
2023/02/17 05:14:18;;;;;;;24.60;15.52;;;;;;;9.14;100.00;101574.97;5134333;27;20539;-52
2023/02/17 05:16:46;;;;;;;25.15;16.45;;;;;;;9.17;100.00;101584.47;5131334;27;20513;-51
2023/02/17 05:19:14;;;;;;;24.45;16.63;;;;;;;9.14;100.00;101579.38;5131255;27;20052;-53
2023/02/17 05:21:43;;;;;;;27.40;16.95;;;;;;;9.12;100.00;101582.06;5131855;27;20047;-52
2023/02/17 05:24:12;;;;;;;24.10;15.93;;;;;;;9.09;100.00;101583.97;5130669;27;20508;-54
2023/02/17 05:26:40;;;;;;;29.52;17.88;;;;;;;9.07;100.00;101591.94;5132427;27;20122;-55
2023/02/17 05:29:08;;;;;;;27.65;18.35;;;;;;;9.07;100.00;101578.81;5134322;27;20046;-54
2023/02/17 05:31:36;;;;;;;29.25;19.42;;;;;;;9.06;100.00;101602.50;5132900;27;20549;-53
2023/02/17 05:34:04;;;;;;;30.55;19.75;;;;;;;9.06;100.00;101594.63;5131453;27;20043;-53
2023/02/17 05:36:32;;;;;;;27.80;19.25;;;;;;;9.02;100.00;101598.31;5130344;27;20039;-53
2023/02/17 05:39:02;;;;;;;31.00;20.85;;;;;;;8.98;100.00;101586.28;5129292;27;20058;-51
2023/02/17 05:41:33;;;;;;;33.78;21.48;;;;;;;8.95;100.00;101590.72;5132625;27;20043;-53
2023/02/17 05:44:01;;;;;;;29.63;19.98;;;;;;;8.92;100.00;101592.66;5134009;27;20051;-52
2023/02/17 05:46:29;;;;;;;31.42;21.13;;;;;;;8.88;100.00;101594.56;5134010;27;20058;-52
2023/02/17 05:48:57;;;;;;;32.90;20.77;;;;;;;8.89;100.00;101592.78;5133023;27;20104;-52
2023/02/17 05:51:25;;;;;;;33.83;21.45;;;;;;;8.91;100.00;101594.41;5130337;27;20074;-54
2023/02/17 05:53:53;;;;;;;30.85;21.05;;;;;;;8.91;100.00;101581.28;5129859;27;20130;-53
2023/02/17 05:56:23;;;;;;;33.03;21.27;;;;;;;8.92;100.00;101580.38;5129621;27;20047;-55
2023/02/17 05:58:51;;;;;;;32.65;22.10;;;;;;;8.89;100.00;101577.03;5130275;27;20054;-53
2023/02/17 06:01:19;;;;;;;33.88;21.88;;;;;;;8.91;100.00;101578.66;5131169;27;20126;-53
2023/02/17 06:03:47;;;;;;;33.03;21.50;;;;;;;8.94;100.00;101572.44;5133657;27;20031;-54
2023/02/17 06:06:15;;;;;;;31.67;20.42;;;;;;;8.96;100.00;101584.56;5133709;27;20075;-55
2023/02/17 06:08:43;;;;;;;30.27;19.80;;;;;;;9.00;100.00;101572.16;5133591;27;20055;-54
2023/02/17 06:11:11;;;;;;;28.17;18.60;;;;;;;9.02;100.00;101566.84;5133480;27;20043;-55
2023/02/17 06:13:41;;;;;;;30.90;20.38;;;;;;;8.99;100.00;101546.84;5133711;27;20046;-54
2023/02/17 06:16:09;;;;;;;29.52;19.15;;;;;;;8.96;100.00;101566.19;5132405;27;20043;-52
2023/02/17 06:18:37;;;;;;;31.85;18.67;;;;;;;8.95;100.00;101574.97;5130189;27;20066;-55
2023/02/17 06:21:06;;;;;;;29.65;18.65;;;;;;;8.93;100.00;101570.72;5130502;27;20047;-54
2023/02/17 06:23:34;;;;;;;31.52;19.67;;;;;;;8.95;100.00;101569.72;5132458;27;20047;-54
2023/02/17 06:26:02;;;;;;;28.10;18.83;;;;;;;8.93;100.00;101566.34;5129735;27;20090;-53
2023/02/17 06:28:30;;;;;;;28.90;17.80;;;;;;;8.96;100.00;101571.44;5130679;27;20107;-54
2023/02/17 06:31:03;;;;;;;28.73;19.20;;;;;;;8.92;100.00;101567.25;5133186;27;20130;-54
2023/02/17 06:33:34;;;;;;;27.38;18.98;;;;;;;8.93;100.00;101566.34;5133399;27;20110;-55
2023/02/17 06:36:02;;;;;;;30.23;18.88;;;;;;;8.96;100.00;101565.34;5133487;27;20410;-53
2023/02/17 06:38:30;;;;;;;26.17;17.25;;;;;;;9.00;100.00;101563.41;5131824;28;20143;-54
2023/02/17 06:40:58;;;;;;;26.65;17.33;;;;;;;8.98;100.00;101574.00;5133315;28;20047;-62
2023/02/17 06:43:27;;;;;;;28.67;17.75;;;;;;;8.99;100.00;101559.13;5132938;27;20119;-62
2023/02/17 06:45:55;;;;;;;25.67;16.58;;;;;;;9.06;100.00;101566.59;5133340;27;20039;-54
2023/02/17 06:48:24;;;;;;;27.58;17.05;;;;;;;9.04;100.00;101562.34;5133146;28;20035;-56
2023/02/17 06:50:52;;;;;;;28.55;18.60;;;;;;;9.02;100.00;101558.97;5132677;28;20115;-55
2023/02/17 06:53:20;;;;;;;25.10;17.05;;;;;;;9.03;100.00;101560.66;5132609;28;20494;-55
2023/02/17 06:55:48;;;;;;;26.98;16.75;;;;;;;9.02;100.00;101559.81;5130707;28;20050;-55
2023/02/17 06:58:16;;;;;;;25.42;16.40;;;;;;;9.05;100.00;101564.06;5129136;27;20070;-55
2023/02/17 07:00:45;;;;;;;28.50;17.95;;;;;;;9.05;100.00;101553.56;5129297;28;20047;-55
2023/02/17 07:03:13;;;;;;;25.67;16.88;;;;;;;9.04;100.00;101549.22;5132072;27;20518;-54
2023/02/17 07:05:43;;;;;;;25.88;16.83;;;;;;;9.07;100.00;101547.31;5134865;27;20047;-54
2023/02/17 07:08:11;;;;;;;25.70;17.27;;;;;;;9.08;100.00;101542.91;5137378;27;20099;-55
2023/02/17 07:10:39;;;;;;;28.35;17.85;;;;;;;9.08;100.00;101554.28;5137308;27;20043;-54
2023/02/17 07:13:07;;;;;;;28.05;17.92;;;;;;;9.16;100.00;101546.03;5137445;27;20116;-62
2023/02/17 07:15:35;;;;;;;26.25;16.10;;;;;;;9.16;100.00;101550.44;5137530;27;20039;-62
2023/02/17 07:18:04;;;;;;;29.00;17.50;;;;;;;9.12;100.00;101553.22;5136840;27;20084;-62
2023/02/17 07:20:32;;;;;;;26.17;17.23;;;;;;;9.17;100.00;101552.97;5136850;27;20439;-62
2023/02/17 07:23:01;;;;;;;28.42;17.95;;;;;;;9.15;100.00;101552.22;5136603;27;20126;-62
2023/02/17 07:25:29;;;;;;;28.85;16.98;;;;;;;9.19;100.00;101545.91;5136093;27;20055;-61
2023/02/17 07:27:59;;;;;;;28.50;17.67;;;;;;;9.17;100.00;101552.13;5136512;27;20055;-62
2023/02/17 07:30:27;;;;;;;27.00;17.25;;;;;;;9.22;100.00;101551.00;5134847;27;20493;-62
2023/02/17 07:32:55;;;;;;;26.35;17.10;;;;;;;9.29;100.00;101544.50;5136488;27;20062;-62
2023/02/17 07:35:24;;;;;;;27.85;16.80;;;;;;;9.25;100.00;101535.09;5136497;27;20073;-62
2023/02/17 07:37:52;;;;;;;28.52;16.83;;;;;;;9.21;100.00;101544.03;5136393;27;20039;-62
2023/02/17 07:40:25;;;;;;;26.17;17.08;;;;;;;9.27;100.00;101548.13;5136242;27;20099;-62
2023/02/17 07:42:54;;;;;;;26.17;17.13;;;;;;;9.24;100.00;101549.16;5136330;27;20054;-62
2023/02/17 07:45:22;;;;;;;25.10;16.42;;;;;;;9.26;100.00;101547.28;5136247;27;20451;-62
2023/02/17 07:47:50;;;;;;;28.35;18.60;;;;;;;9.25;100.00;101548.22;5137178;27;20051;-62
2023/02/17 07:50:21;;;;;;;27.85;17.90;;;;;;;9.28;100.00;101555.97;5137129;27;20515;-62
2023/02/17 07:52:50;;;;;;;27.80;18.45;;;;;;;9.32;100.00;101554.00;5136658;27;20046;-62
2023/02/17 07:55:18;;;;;;;27.75;18.80;;;;;;;9.36;100.00;101541.59;5136023;27;20130;-62
2023/02/17 07:57:48;;;;;;;28.52;18.80;;;;;;;9.38;100.00;101550.22;5136232;27;20055;-62
2023/02/17 08:00:17;;;;;;;29.92;17.90;;;;;;;9.37;100.00;101543.31;5137211;27;20073;-62
2023/02/17 08:02:46;;;;;;;29.38;19.10;;;;;;;9.40;100.00;101543.97;5136773;27;20039;-62
2023/02/17 08:05:14;;;;;;;29.25;18.10;;;;;;;9.44;100.00;101542.06;5136743;27;20040;-62
2023/02/17 08:07:42;;;;;;;30.65;18.45;;;;;;;9.42;100.00;101531.66;5135866;27;20043;-62
2023/02/17 08:15:44;;;;;;;25.27;16.10;;;;;;;9.50;100.00;101527.78;5135728;27;20039;-62
2023/02/17 08:18:15;;;;;;;27.83;17.48;;;;;;;9.45;100.00;101535.91;5134722;27;20043;-62
2023/02/17 08:20:44;;;;;;;29.95;16.73;;;;;;;9.54;100.00;101537.22;5136226;27;20100;-63
2023/02/17 08:23:12;;;;;;;26.70;17.08;;;;;;;9.52;100.00;101545.16;5135234;27;20440;-62
2023/02/17 08:25:40;;;;;;;27.08;16.52;;;;;;;9.54;100.00;101534.59;5135437;27;20489;-62
2023/02/17 08:28:12;;;;;;;24.58;16.30;;;;;;;9.58;100.00;101539.59;5136654;27;20057;-62
2023/02/17 08:30:41;;;;;;;23.30;15.63;;;;;;;9.63;100.00;101531.50;5136159;27;20062;-62
2023/02/17 08:33:09;;;;;;;26.52;16.08;;;;;;;9.59;100.00;101528.16;5134761;27;20092;-62
2023/02/17 08:35:37;;;;;;;28.05;15.93;;;;;;;9.61;100.00;101531.59;5133106;27;20125;-56
2023/02/17 08:38:05;;;;;;;25.50;16.38;;;;;;;9.69;100.00;101559.22;5133605;27;20501;-55
2023/02/17 08:40:33;;;;;;;24.52;15.32;;;;;;;9.71;100.00;101567.91;5134875;27;20443;-55
2023/02/17 08:43:02;;;;;;;22.33;15.23;;;;;;;9.71;100.00;101552.97;5131494;27;20399;-55
2023/02/17 08:45:32;;;;;;;25.23;14.63;;;;;;;9.73;100.00;101556.38;5130889;27;20038;-54
2023/02/17 08:48:00;;;;;;;23.02;14.48;;;;;;;9.72;100.00;101574.84;5132037;27;20061;-54
2023/02/17 08:50:28;;;;;;;20.92;14.60;;;;;;;9.75;100.00;101583.41;5131738;27;20047;-51
2023/02/17 08:52:56;;;;;;;21.08;15.05;;;;;;;9.74;100.00;101576.47;5133410;27;20051;-54
2023/02/17 08:55:24;;;;;;;21.05;13.95;;;;;;;9.83;100.00;101583.03;5135358;27;20047;-54
2023/02/17 08:57:52;;;;;;;20.40;13.07;;;;;;;9.83;100.00;101590.94;5135159;27;20549;-54
2023/02/17 09:00:21;;;;;;;19.75;12.65;;;;;;;9.83;100.00;101598.81;5133545;27;20154;-54
2023/02/17 09:02:51;;;;;;;18.60;12.02;;;;;;;9.86;100.00;101584.63;5134002;27;20494;-52
2023/02/17 09:05:19;;;;;;;17.42;10.98;;;;;;;9.89;100.00;101587.97;5131707;27;20035;-55
2023/02/17 09:07:47;;;;;;;18.25;10.48;;;;;;;9.91;100.00;101586.13;5132012;27;20075;-55
2023/02/17 09:10:15;;;;;;;16.80;10.52;;;;;;;9.93;100.00;101589.53;5135012;27;20096;-54
2023/02/17 09:12:44;;;;;;;16.27;9.90;;;;;;;9.96;100.00;101594.59;5134629;27;20047;-53
2023/02/17 09:15:12;;;;;;;15.35;9.13;;;;;;;9.98;100.00;101597.19;5131052;27;20046;-53
2023/02/17 09:17:40;;;;;;;15.73;9.82;;;;;;;9.97;100.00;101601.56;5132082;27;20467;-53
2023/02/17 09:20:11;;;;;;;15.75;9.50;;;;;;;9.97;100.00;101598.94;5134755;27;20054;-55
2023/02/17 09:22:51;;;;;;;17.02;9.43;;;;;;;10.09;100.00;101607.13;5131590;27;20055;-53
2023/02/17 09:25:20;;;;;;;16.05;8.65;;;;;;;10.11;100.00;101614.00;5130052;27;20051;-55
2023/02/17 09:27:48;;;;;;;14.82;9.10;;;;;;;10.17;100.00;101606.75;5131460;27;20385;-53
2023/02/17 09:30:16;;;;;;;14.73;9.18;;;;;;;10.20;100.00;101617.97;5130617;27;20116;-53
2023/02/17 09:32:45;;;;;;;13.73;8.45;;;;;;;10.18;100.00;101614.53;5129585;27;20081;-54
2023/02/17 09:35:16;;;;;;;12.98;8.75;;;;;;;10.20;100.00;101611.84;5131944;27;20046;-53
2023/02/17 09:37:45;;;;;;;14.32;8.00;;;;;;;10.20;100.00;101617.97;5131339;27;20046;-53
2023/02/17 09:40:18;;;;;;;11.82;7.55;;;;;;;10.19;100.00;101607.53;5131352;27;20071;-54
2023/02/17 09:42:47;;;;;;;11.57;7.43;;;;;;;10.21;100.00;101614.41;5134103;27;20051;-53
2023/02/17 09:45:21;;;;;;;14.27;8.20;;;;;;;10.31;100.00;101609.53;5134246;27;20047;-53
2023/02/17 09:47:53;;;;;;;15.30;8.50;;;;;;;10.29;100.00;101600.84;5133992;27;20043;-55
2023/02/17 09:50:27;;;;;;;10.95;6.93;;;;;;;10.30;100.00;101606.03;5134142;27;20091;-53
2023/02/17 09:53:01;;;;;;;11.18;6.35;;;;;;;10.39;100.00;101590.72;5133954;27;20039;-53
2023/02/17 09:55:33;;;;;;;12.57;6.90;;;;;;;10.39;100.00;101588.97;5133949;27;20051;-52
2023/02/17 09:58:09;;;;;;;11.00;6.60;;;;;;;10.40;100.00;101592.44;5133879;27;20046;-54
2023/02/17 10:00:39;;;;;;;;;;;;;;;10.43;100.00;101600.16;5133703;27;20111;-54
2023/02/17 10:03:15;;;;;;;10.65;6.28;;;;;;;10.43;100.00;101597.53;5130707;27;20035;-52
2023/02/17 10:05:52;;;;;;;10.20;6.18;;;;;;;10.43;100.00;101577.34;5131868;27;20043;-54
2023/02/17 10:08:25;;;;;;;10.55;5.93;;;;;;;10.44;100.00;101586.09;5133818;27;20073;-63
2023/02/17 10:11:02;;;;;;;9.45;5.88;;;;;;;10.51;100.00;101582.19;5133721;27;20505;-64
2023/02/17 10:13:34;;;;;;;9.35;5.97;;;;;;;10.54;100.00;101579.41;5132856;27;20047;-64
2023/02/17 10:16:10;;;;;;;10.93;5.93;;;;;;;10.53;100.00;101577.72;5130568;27;20047;-64
2023/02/17 10:18:43;;;;;;;9.55;5.45;;;;;;;10.53;100.00;101572.47;5132378;27;20452;-63
2023/02/17 10:21:20;;;;;;;8.90;5.88;;;;;;;10.51;100.00;101579.56;5133543;27;20043;-55
2023/02/17 10:23:52;;;;;;;10.77;5.47;;;;;;;10.57;100.00;101600.28;5129602;27;20100;-54
2023/02/17 10:26:33;;;;;;;10.10;5.63;;;;;;;10.57;100.00;101605.56;5127845;27;20142;-63
2023/02/17 10:29:06;;;;;;;9.05;5.15;;;;;;;10.59;100.00;101597.56;5129633;27;20501;-63
2023/02/17 10:31:44;;;;;;;10.10;5.15;;;;;;;10.58;100.00;101590.59;5127965;27;20066;-64
2023/02/17 10:34:25;;;;;;;12.73;5.60;;;;;;;10.58;100.00;101607.25;5130229;27;20036;-64
2023/02/17 10:36:59;;;;;;;9.10;5.22;;;;;;;10.61;100.00;101607.09;5131365;27;20509;-64
2023/02/17 10:39:44;;;;;;;8.57;4.88;;;;;;;10.61;100.00;101619.41;5129128;27;20532;-64
2023/02/17 10:42:20;;;;;;;9.32;4.57;;;;;;;10.64;100.00;101617.44;5128333;27;20047;-64
2023/02/17 10:44:50;;;;;;;9.70;5.50;;;;;;;10.65;100.00;101619.16;5129913;27;20559;-64
2023/02/17 10:47:21;;;;;;;9.27;4.93;;;;;;;10.63;100.00;101631.53;5130949;28;20050;-64
2023/02/17 10:49:51;;;;;;;9.35;4.82;;;;;;;10.61;100.00;101633.41;5131140;27;20043;-64
2023/02/17 10:52:24;;;;;;;9.65;4.70;;;;;;;10.59;100.00;101632.63;5130039;28;20039;-64
2023/02/17 10:54:58;;;;;;;8.57;5.13;;;;;;;10.63;100.00;101628.91;5132668;27;20557;-64
2023/02/17 10:57:32;;;;;;;10.43;5.32;;;;;;;10.59;100.00;101593.19;5128729;27;20130;-64
2023/02/17 11:00:00;;;;;;;11.88;5.82;;;;;;;10.63;100.00;101609.63;5130084;27;20047;-64
2023/02/17 11:02:36;;;;;;;8.63;4.85;;;;;;;10.59;100.00;101616.00;5131916;28;20051;-64
2023/02/17 11:05:20;;;;;;;9.70;5.60;;;;;;;10.60;100.00;101615.91;5130169;27;20096;-64
2023/02/17 11:07:56;;;;;;;8.18;5.03;;;;;;;10.60;100.00;101610.66;5129478;27;20043;-64
2023/02/17 11:10:27;;;;;;;9.25;5.30;;;;;;;10.62;100.00;101619.31;5128710;28;20043;-64
2023/02/17 11:12:57;;;;;;;10.60;5.18;;;;;;;10.64;100.00;101606.06;5130049;28;20043;-65
2023/02/17 11:15:34;;;;;;;8.60;5.03;;;;;;;10.67;100.00;101610.34;5128449;28;20047;-65
2023/02/17 11:18:10;;;;;;;10.40;4.93;;;;;;;10.68;100.00;101606.78;5130198;27;20063;-64
2023/02/17 11:20:39;;;;;;;10.65;5.30;;;;;;;10.74;100.00;101616.97;5133026;28;20061;-64
2023/02/17 11:23:22;;;;;;;10.23;5.60;;;;;;;10.73;100.00;101620.50;5132849;28;20111;-65
2023/02/17 11:26:03;;;;;;;11.20;5.40;;;;;;;10.70;100.00;101621.53;5132665;28;20048;-65
2023/02/17 11:28:31;;;;;;;8.77;4.97;;;;;;;10.71;100.00;101619.75;5132202;27;20466;-65